^^
Saratoga-Weather Station Historical Data
Daily Summary for February 14, 2020 Units:  Both    English   Metric
Daily Weekly Monthly Yearly Custom
  High: Low: Average:
Temperature: 59.9 °F /  15.5 °C 43 °F /  6.1 °C 51.6 °F /  10.9 °C
Dew Point: 41.7 °F /  5.4 °C 36.3 °F /  2.4 °C 38.3 °F /  3.5 °C
Humidity: 78% 46% 62%
Wind Speed: 11mph /  17.7km/h - 3mph /  4.9km/h
Wind Gust: 16mph /  25.7km/h - -
Wind- - South
Pressure: 30 in /  1015.6 hPa 29.9 in /  1011.5 hPa -
Precipitation: 0.02 in /  0.5 mm    
Historical Graphs
 
 
Tabular Data for February 14, 2020
Time Temperature Dew Point Pressure Wind Wind Speed Wind Gust Humidity Rainfall Rate (Hourly) solar
00:02 49.3 °F /  9.6 °C 39.2 °F /  4 °C 29.9in /  1011.5hPa North 2mph /  3.2km/h 4mph /  6.4km/h 68% 0in /  0.0mm 0 W/m2
00:07 49.3 °F /  9.6 °C 39.6 °F /  4.2 °C 29.9in /  1011.5hPa NNE 2.9mph /  4.7km/h 12mph /  19.3km/h 69% 0in /  0.0mm 0 W/m2
00:12 48.9 °F /  9.4 °C 39.2 °F /  4 °C 29.9in /  1011.5hPa WNW 4mph /  6.4km/h 7mph /  11.3km/h 69% 0in /  0.0mm 0 W/m2
00:17 48.9 °F /  9.4 °C 39.2 °F /  4 °C 29.9in /  1011.5hPa North 0.9mph /  1.4km/h 10mph /  16.1km/h 69% 0in /  0.0mm 0 W/m2
00:22 48.7 °F /  9.3 °C 39.4 °F /  4.1 °C 29.9in /  1011.9hPa North 2.9mph /  4.7km/h 8mph /  12.9km/h 70% 0in /  0.0mm 0 W/m2
00:27 48.7 °F /  9.3 °C 39.4 °F /  4.1 °C 29.9in /  1011.9hPa West 2.9mph /  4.7km/h 4mph /  6.4km/h 70% 0in /  0.0mm 0 W/m2
00:32 48.7 °F /  9.3 °C 39.4 °F /  4.1 °C 29.9in /  1011.9hPa NNW 2mph /  3.2km/h 4mph /  6.4km/h 70% 0in /  0.0mm 0 W/m2
00:37 48.6 °F /  9.2 °C 39.6 °F /  4.2 °C 29.9in /  1011.9hPa WSW 4mph /  6.4km/h 7mph /  11.3km/h 71% 0in /  0.0mm 0 W/m2
00:42 48.6 °F /  9.2 °C 39.2 °F /  4 °C 29.9in /  1012.2hPa NW 2mph /  3.2km/h 9mph /  14.5km/h 70% 0in /  0.0mm 0 W/m2
00:47 48.4 °F /  9.1 °C 39 °F /  3.9 °C 29.9in /  1012.2hPa NW 2.9mph /  4.7km/h 5mph /  8km/h 70% 0in /  0.0mm 0 W/m2
00:52 48.4 °F /  9.1 °C 39.4 °F /  4.1 °C 29.9in /  1012.2hPa NNW 2mph /  3.2km/h 9mph /  14.5km/h 71% 0in /  0.0mm 0 W/m2
00:57 48.4 °F /  9.1 °C 39.4 °F /  4.1 °C 29.9in /  1012.2hPa WNW 4mph /  6.4km/h 5mph /  8km/h 71% 0in /  0.0mm 0 W/m2
01:02 48.2 °F /  9 °C 39.2 °F /  4 °C 29.9in /  1012.2hPa SSW 0.9mph /  1.4km/h 6mph /  9.7km/h 71% 0in /  0.0mm 0 W/m2
01:07 48 °F /  8.9 °C 39 °F /  3.9 °C 29.9in /  1012.2hPa WSW 2.9mph /  4.7km/h 4mph /  6.4km/h 71% 0in /  0.0mm 0 W/m2
01:12 48 °F /  8.9 °C 39 °F /  3.9 °C 29.9in /  1012.2hPa ENE 10mph /  16.1km/h 10mph /  16.1km/h 71% 0in /  0.0mm 0 W/m2
01:17 48 °F /  8.9 °C 39 °F /  3.9 °C 29.9in /  1012.2hPa WNW 2mph /  3.2km/h 8mph /  12.9km/h 71% 0in /  0.0mm 0 W/m2
01:22 47.8 °F /  8.8 °C 38.8 °F /  3.8 °C 29.9in /  1012.2hPa NNW 4.9mph /  7.9km/h 6mph /  9.7km/h 71% 0in /  0.0mm 0 W/m2
01:27 47.8 °F /  8.8 °C 38.8 °F /  3.8 °C 29.9in /  1012.2hPa West 0.9mph /  1.4km/h 5mph /  8km/h 71% 0in /  0.0mm 0 W/m2
01:32 47.7 °F /  8.7 °C 39 °F /  3.9 °C 29.9in /  1012.2hPa SW 0.9mph /  1.4km/h 5mph /  8km/h 72% 0in /  0.0mm 0 W/m2
01:37 47.7 °F /  8.7 °C 39 °F /  3.9 °C 29.9in /  1012.2hPa NNW 2mph /  3.2km/h 4mph /  6.4km/h 72% 0in /  0.0mm 0 W/m2
01:42 47.5 °F /  8.6 °C 38.8 °F /  3.8 °C 29.9in /  1012.2hPa NNE 0.9mph /  1.4km/h 3mph /  4.8km/h 72% 0in /  0.0mm 0 W/m2
01:47 47.3 °F /  8.5 °C 38.7 °F /  3.7 °C 29.9in /  1012.5hPa NNW 2.9mph /  4.7km/h 4mph /  6.4km/h 72% 0in /  0.0mm 0 W/m2
01:52 47.1 °F /  8.4 °C 38.5 °F /  3.6 °C 29.9in /  1012.5hPa WNW 2.9mph /  4.7km/h 6mph /  9.7km/h 72% 0in /  0.0mm 0 W/m2
01:57 46.9 °F /  8.3 °C 38.3 °F /  3.5 °C 29.9in /  1012.5hPa NNW 2mph /  3.2km/h 2mph /  3.2km/h 72% 0in /  0.0mm 0 W/m2
02:02 46.8 °F /  8.2 °C 38.3 °F /  3.5 °C 29.9in /  1012.5hPa WNW 2mph /  3.2km/h 5mph /  8km/h 72% 0in /  0.0mm 0 W/m2
02:07 46.8 °F /  8.2 °C 38.5 °F /  3.6 °C 29.9in /  1012.5hPa NE 2.9mph /  4.7km/h 10mph /  16.1km/h 73% 0in /  0.0mm 0 W/m2
02:12 46.6 °F /  8.1 °C 38.1 °F /  3.4 °C 29.9in /  1012.5hPa East 2mph /  3.2km/h 6mph /  9.7km/h 72% 0in /  0.0mm 0 W/m2
02:17 46.6 °F /  8.1 °C 38.5 °F /  3.6 °C 29.9in /  1012.9hPa SE 2.9mph /  4.7km/h 4mph /  6.4km/h 73% 0in /  0.0mm 0 W/m2
02:22 46.4 °F /  8 °C 38.3 °F /  3.5 °C 29.9in /  1012.9hPa NE 0.9mph /  1.4km/h 6mph /  9.7km/h 73% 0in /  0.0mm 0 W/m2
02:28 46.2 °F /  7.9 °C 38.1 °F /  3.4 °C 29.9in /  1012.9hPa NE 2.9mph /  4.7km/h 10mph /  16.1km/h 73% 0in /  0.0mm 0 W/m2
02:33 46.2 °F /  7.9 °C 38.1 °F /  3.4 °C 29.9in /  1012.9hPa WSW 4mph /  6.4km/h 7mph /  11.3km/h 73% 0in /  0.0mm 0 W/m2
02:38 46 °F /  7.8 °C 37.9 °F /  3.3 °C 29.9in /  1012.9hPa NW 4mph /  6.4km/h 7mph /  11.3km/h 73% 0in /  0.0mm 0 W/m2
02:43 46 °F /  7.8 °C 37.9 °F /  3.3 °C 29.9in /  1012.9hPa ESE 2mph /  3.2km/h 6mph /  9.7km/h 73% 0in /  0.0mm 0 W/m2
02:48 46 °F /  7.8 °C 37.9 °F /  3.3 °C 29.9in /  1012.9hPa North 2.9mph /  4.7km/h 4mph /  6.4km/h 73% 0in /  0.0mm 0 W/m2
02:53 46 °F /  7.8 °C 37.9 °F /  3.3 °C 29.9in /  1012.9hPa NNW 0.9mph /  1.4km/h 5mph /  8km/h 73% 0in /  0.0mm 0 W/m2
02:58 45.9 °F /  7.7 °C 37.8 °F /  3.2 °C 29.9in /  1012.9hPa SSW 0.9mph /  1.4km/h 3mph /  4.8km/h 73% 0in /  0.0mm 0 W/m2
03:03 45.9 °F /  7.7 °C 37.8 °F /  3.2 °C 29.9in /  1012.9hPa ESE 2.9mph /  4.7km/h 4mph /  6.4km/h 73% 0in /  0.0mm 0 W/m2
03:08 45.7 °F /  7.6 °C 37.9 °F /  3.3 °C 29.9in /  1013.2hPa West 4mph /  6.4km/h 6mph /  9.7km/h 74% 0in /  0.0mm 0 W/m2
03:13 45.7 °F /  7.6 °C 37.6 °F /  3.1 °C 29.9in /  1013.2hPa NNW 4.9mph /  7.9km/h 6mph /  9.7km/h 73% 0in /  0.0mm 0 W/m2
03:18 45.7 °F /  7.6 °C 37.9 °F /  3.3 °C 29.9in /  1013.2hPa NNW 2mph /  3.2km/h 7mph /  11.3km/h 74% 0in /  0.0mm 0 W/m2
03:23 45.5 °F /  7.5 °C 37.4 °F /  3 °C 29.9in /  1013.2hPa WNW 0.9mph /  1.4km/h 4mph /  6.4km/h 73% 0in /  0.0mm 0 W/m2
03:28 45.3 °F /  7.4 °C 37.6 °F /  3.1 °C 29.9in /  1013.2hPa Calm   3mph /  4.8km/h 74% 0in /  0.0mm 0 W/m2
03:33 45.3 °F /  7.4 °C 37.6 °F /  3.1 °C 29.9in /  1013.2hPa ENE 6mph /  9.7km/h 8mph /  12.9km/h 74% 0in /  0.0mm 0 W/m2
03:38 45.1 °F /  7.3 °C 37.4 °F /  3 °C 29.9in /  1013.5hPa NNE 0.9mph /  1.4km/h 3mph /  4.8km/h 74% 0in /  0.0mm 0 W/m2
03:43 45.1 °F /  7.3 °C 37.4 °F /  3 °C 29.9in /  1013.5hPa ENE 0.9mph /  1.4km/h 8mph /  12.9km/h 74% 0in /  0.0mm 0 W/m2
03:48 45.1 °F /  7.3 °C 37.4 °F /  3 °C 29.9in /  1013.5hPa SSW 0.9mph /  1.4km/h 3mph /  4.8km/h 74% 0in /  0.0mm 0 W/m2
03:53 45 °F /  7.2 °C 37.2 °F /  2.9 °C 29.9in /  1013.5hPa NW 2mph /  3.2km/h 4mph /  6.4km/h 74% 0in /  0.0mm 0 W/m2
03:58 45 °F /  7.2 °C 37.2 °F /  2.9 °C 29.9in /  1013.5hPa ENE 4mph /  6.4km/h 5mph /  8km/h 74% 0in /  0.0mm 0 W/m2
04:03 44.8 °F /  7.1 °C 37 °F /  2.8 °C 29.9in /  1013.5hPa ESE 2.9mph /  4.7km/h 4mph /  6.4km/h 74% 0in /  0.0mm 0 W/m2
04:08 44.6 °F /  7 °C 36.9 °F /  2.7 °C 29.9in /  1013.5hPa WNW 4.9mph /  7.9km/h 7mph /  11.3km/h 74% 0in /  0.0mm 0 W/m2
04:13 44.4 °F /  6.9 °C 37 °F /  2.8 °C 29.9in /  1013.5hPa NNW 4.9mph /  7.9km/h 5mph /  8km/h 75% 0in /  0.0mm 0 W/m2
04:18 44.4 °F /  6.9 °C 37 °F /  2.8 °C 29.9in /  1013.5hPa ENE 0.9mph /  1.4km/h 4mph /  6.4km/h 75% 0in /  0.0mm 0 W/m2
04:23 44.2 °F /  6.8 °C 36.9 °F /  2.7 °C 29.9in /  1013.9hPa NNW 4mph /  6.4km/h 4mph /  6.4km/h 75% 0in /  0.0mm 0 W/m2
04:28 44.2 °F /  6.8 °C 37.2 °F /  2.9 °C 29.9in /  1013.9hPa ESE 2mph /  3.2km/h 7mph /  11.3km/h 76% 0in /  0.0mm 0 W/m2
04:33 44.1 °F /  6.7 °C 37 °F /  2.8 °C 29.9in /  1013.9hPa NNW 2.9mph /  4.7km/h 6mph /  9.7km/h 76% 0in /  0.0mm 0 W/m2
04:38 44.1 °F /  6.7 °C 37 °F /  2.8 °C 29.9in /  1013.9hPa ENE 2.9mph /  4.7km/h 4mph /  6.4km/h 76% 0in /  0.0mm 0 W/m2
04:43 44.1 °F /  6.7 °C 37 °F /  2.8 °C 29.9in /  1013.9hPa Calm   3mph /  4.8km/h 76% 0in /  0.0mm 0 W/m2
04:48 44.1 °F /  6.7 °C 37 °F /  2.8 °C 29.9in /  1013.9hPa NNE 0.9mph /  1.4km/h 6mph /  9.7km/h 76% 0in /  0.0mm 0 W/m2
04:53 43.9 °F /  6.6 °C 36.9 °F /  2.7 °C 29.9in /  1013.9hPa North 4mph /  6.4km/h 8mph /  12.9km/h 76% 0in /  0.0mm 0 W/m2
04:58 43.9 °F /  6.6 °C 36.9 °F /  2.7 °C 29.9in /  1013.9hPa SE 2mph /  3.2km/h 5mph /  8km/h 76% 0in /  0.0mm 0 W/m2
05:03 43.9 °F /  6.6 °C 36.9 °F /  2.7 °C 29.9in /  1013.9hPa NW 9mph /  14.5km/h 9mph /  14.5km/h 76% 0in /  0.0mm 0 W/m2
05:08 43.9 °F /  6.6 °C 36.9 °F /  2.7 °C 29.9in /  1013.9hPa South 0.9mph /  1.4km/h 3mph /  4.8km/h 76% 0in /  0.0mm 0 W/m2
05:13 43.7 °F /  6.5 °C 36.7 °F /  2.6 °C 30in /  1014.2hPa East 2.9mph /  4.7km/h 5mph /  8km/h 76% 0in /  0.0mm 0 W/m2
05:18 43.7 °F /  6.5 °C 36.7 °F /  2.6 °C 29.9in /  1013.9hPa WSW 2.9mph /  4.7km/h 3mph /  4.8km/h 76% 0in /  0.0mm 0 W/m2
05:23 43.5 °F /  6.4 °C 36.5 °F /  2.5 °C 29.9in /  1013.9hPa NE 6mph /  9.7km/h 6mph /  9.7km/h 76% 0in /  0.0mm 0 W/m2
05:28 43.5 °F /  6.4 °C 36.5 °F /  2.5 °C 30in /  1014.2hPa NNW 8.1mph /  13km/h 8mph /  12.9km/h 76% 0in /  0.0mm 0 W/m2
05:33 43.5 °F /  6.4 °C 36.5 °F /  2.5 °C 30in /  1014.2hPa West 4mph /  6.4km/h 9mph /  14.5km/h 76% 0in /  0.0mm 0 W/m2
05:38 43.5 °F /  6.4 °C 36.5 °F /  2.5 °C 30in /  1014.2hPa North 0.9mph /  1.4km/h 9mph /  14.5km/h 76% 0in /  0.0mm 0 W/m2
05:43 43.3 °F /  6.3 °C 36.3 °F /  2.4 °C 30in /  1014.2hPa WNW 4.9mph /  7.9km/h 5mph /  8km/h 76% 0in /  0.0mm 0 W/m2
05:49 43.3 °F /  6.3 °C 36.3 °F /  2.4 °C 30in /  1014.2hPa North 4mph /  6.4km/h 9mph /  14.5km/h 76% 0in /  0.0mm 0 W/m2
05:54 43.3 °F /  6.3 °C 36.3 °F /  2.4 °C 30in /  1014.2hPa WSW 0.9mph /  1.4km/h 2mph /  3.2km/h 76% 0in /  0.0mm 0 W/m2
05:59 43.2 °F /  6.2 °C 36.5 °F /  2.5 °C 30in /  1014.2hPa ENE 2.9mph /  4.7km/h 8mph /  12.9km/h 77% 0in /  0.0mm 5 W/m2
06:04 43.2 °F /  6.2 °C 36.5 °F /  2.5 °C 30in /  1014.2hPa SSW 2.9mph /  4.7km/h 9mph /  14.5km/h 77% 0in /  0.0mm 7 W/m2
06:09 43.2 °F /  6.2 °C 36.5 °F /  2.5 °C 30in /  1014.6hPa NNW 6mph /  9.7km/h 8mph /  12.9km/h 77% 0in /  0.0mm 11 W/m2
06:14 43.2 °F /  6.2 °C 36.5 °F /  2.5 °C 30in /  1014.6hPa North 2.9mph /  4.7km/h 4mph /  6.4km/h 77% 0in /  0.0mm 14 W/m2
06:19 43.2 °F /  6.2 °C 36.5 °F /  2.5 °C 30in /  1014.6hPa NE 2mph /  3.2km/h 3mph /  4.8km/h 77% 0in /  0.0mm 19 W/m2
06:24 43 °F /  6.1 °C 36.3 °F /  2.4 °C 30in /  1014.6hPa North 6mph /  9.7km/h 9mph /  14.5km/h 77% 0in /  0.0mm 28 W/m2
06:29 43 °F /  6.1 °C 36.3 °F /  2.4 °C 30in /  1014.6hPa NNW 6mph /  9.7km/h 6mph /  9.7km/h 77% 0in /  0.0mm 33 W/m2
06:34 43 °F /  6.1 °C 36.7 °F /  2.6 °C 30in /  1014.6hPa NNE 0.9mph /  1.4km/h 9mph /  14.5km/h 78% 0in /  0.0mm 37 W/m2
06:39 43 °F /  6.1 °C 36.3 °F /  2.4 °C 30in /  1014.6hPa ENE 2.9mph /  4.7km/h 10mph /  16.1km/h 77% 0in /  0.0mm 40 W/m2
06:44 43 °F /  6.1 °C 36.7 °F /  2.6 °C 30in /  1014.6hPa NNW 0.9mph /  1.4km/h 7mph /  11.3km/h 78% 0in /  0.0mm 44 W/m2
06:49 43 °F /  6.1 °C 36.7 °F /  2.6 °C 30in /  1014.6hPa NW 4.9mph /  7.9km/h 10mph /  16.1km/h 78% 0in /  0.0mm 49 W/m2
06:54 43 °F /  6.1 °C 36.7 °F /  2.6 °C 30in /  1014.9hPa East 2.9mph /  4.7km/h 4mph /  6.4km/h 78% 0in /  0.0mm 51 W/m2
06:59 43 °F /  6.1 °C 36.7 °F /  2.6 °C 30in /  1014.9hPa NE 2mph /  3.2km/h 6mph /  9.7km/h 78% 0in /  0.0mm 53 W/m2
07:04 43 °F /  6.1 °C 36.7 °F /  2.6 °C 30in /  1014.9hPa WNW 2.9mph /  4.7km/h 5mph /  8km/h 78% 0in /  0.0mm 60 W/m2
07:09 43 °F /  6.1 °C 36.7 °F /  2.6 °C 30in /  1014.6hPa NW 2mph /  3.2km/h 4mph /  6.4km/h 78% 0in /  0.0mm 56 W/m2
07:14 43 °F /  6.1 °C 36.7 °F /  2.6 °C 30in /  1014.6hPa SW 4.9mph /  7.9km/h 8mph /  12.9km/h 78% 0in /  0.0mm 54 W/m2
07:19 43 °F /  6.1 °C 36.7 °F /  2.6 °C 30in /  1014.9hPa North 4mph /  6.4km/h 6mph /  9.7km/h 78% 0in /  0.0mm 56 W/m2
07:24 43 °F /  6.1 °C 36.7 °F /  2.6 °C 30in /  1014.9hPa North 2.9mph /  4.7km/h 6mph /  9.7km/h 78% 0in /  0.0mm 60 W/m2
07:29 43.2 °F /  6.2 °C 36.7 °F /  2.6 °C 30in /  1014.9hPa NW 6.9mph /  11.1km/h 12mph /  19.3km/h 78% 0in /  0.0mm 65 W/m2
07:34 43.3 °F /  6.3 °C 36.9 °F /  2.7 °C 30in /  1014.9hPa East 8.1mph /  13km/h 8mph /  12.9km/h 78% 0in /  0.0mm 70 W/m2
07:39 43.3 °F /  6.3 °C 36.9 °F /  2.7 °C 30in /  1014.9hPa NE 4mph /  6.4km/h 12mph /  19.3km/h 78% 0in /  0.0mm 67 W/m2
07:44 43.5 °F /  6.4 °C 37 °F /  2.8 °C 30in /  1014.9hPa East 2mph /  3.2km/h 4mph /  6.4km/h 78% 0in /  0.0mm 69 W/m2
07:49 43.5 °F /  6.4 °C 37 °F /  2.8 °C 30in /  1015.2hPa ESE 2mph /  3.2km/h 4mph /  6.4km/h 78% 0in /  0.0mm 109 W/m2
07:54 43.9 °F /  6.6 °C 37.4 °F /  3 °C 30in /  1015.2hPa ESE 2.9mph /  4.7km/h 4mph /  6.4km/h 78% 0in /  0.0mm 218 W/m2
07:59 44.2 °F /  6.8 °C 37.8 °F /  3.2 °C 30in /  1015.2hPa Calm   7mph /  11.3km/h 78% 0in /  0.0mm 253 W/m2
08:04 44.6 °F /  7 °C 37.6 °F /  3.1 °C 30in /  1015.2hPa WNW 0.9mph /  1.4km/h 3mph /  4.8km/h 76% 0in /  0.0mm 264 W/m2
08:09 44.8 °F /  7.1 °C 37.8 °F /  3.2 °C 30in /  1015.2hPa North 2mph /  3.2km/h 4mph /  6.4km/h 76% 0in /  0.0mm 279 W/m2
08:14 45.1 °F /  7.3 °C 37.9 °F /  3.3 °C 30in /  1015.2hPa SE 2mph /  3.2km/h 11mph /  17.7km/h 76% 0in /  0.0mm 290 W/m2
08:19 45.3 °F /  7.4 °C 37.9 °F /  3.3 °C 30in /  1015.2hPa NW 2.9mph /  4.7km/h 7mph /  11.3km/h 75% 0in /  0.0mm 302 W/m2
08:24 45.5 °F /  7.5 °C 38.1 °F /  3.4 °C 30in /  1015.2hPa NNW 11mph /  17.7km/h 11mph /  17.7km/h 75% 0in /  0.0mm 315 W/m2
08:29 45.9 °F /  7.7 °C 38.1 °F /  3.4 °C 30in /  1015.2hPa NE 4mph /  6.4km/h 7mph /  11.3km/h 74% 0in /  0.0mm 330 W/m2
08:34 46.2 °F /  7.9 °C 38.5 °F /  3.6 °C 30in /  1015.2hPa ESE 0.9mph /  1.4km/h 9mph /  14.5km/h 74% 0in /  0.0mm 341 W/m2
08:39 46.6 °F /  8.1 °C 38.5 °F /  3.6 °C 30in /  1015.6hPa NW 2mph /  3.2km/h 6mph /  9.7km/h 73% 0in /  0.0mm 359 W/m2
08:44 46.8 °F /  8.2 °C 38.5 °F /  3.6 °C 30in /  1015.6hPa East 2.9mph /  4.7km/h 4mph /  6.4km/h 73% 0in /  0.0mm 367 W/m2
08:49 46.9 °F /  8.3 °C 38.3 °F /  3.5 °C 30in /  1015.6hPa ENE 2mph /  3.2km/h 9mph /  14.5km/h 72% 0in /  0.0mm 383 W/m2
08:54 46.9 °F /  8.3 °C 38.3 °F /  3.5 °C 30in /  1015.6hPa NNW 2mph /  3.2km/h 11mph /  17.7km/h 72% 0in /  0.0mm 390 W/m2
08:59 47.1 °F /  8.4 °C 38.5 °F /  3.6 °C 30in /  1015.6hPa ENE 0.9mph /  1.4km/h 4mph /  6.4km/h 72% 0in /  0.0mm 410 W/m2
09:04 47.7 °F /  8.7 °C 38.7 °F /  3.7 °C 30in /  1015.6hPa West 6mph /  9.7km/h 7mph /  11.3km/h 71% 0in /  0.0mm 422 W/m2
09:09 47.7 °F /  8.7 °C 38.3 °F /  3.5 °C 30in /  1015.6hPa NNE 4mph /  6.4km/h 5mph /  8km/h 70% 0in /  0.0mm 436 W/m2
09:14 48 °F /  8.9 °C 38.7 °F /  3.7 °C 30in /  1015.6hPa SW 2.9mph /  4.7km/h 8mph /  12.9km/h 70% 0in /  0.0mm 452 W/m2
09:19 48.2 °F /  9 °C 38.5 °F /  3.6 °C 30in /  1015.6hPa NW 4.9mph /  7.9km/h 9mph /  14.5km/h 69% 0in /  0.0mm 462 W/m2
09:24 48.4 °F /  9.1 °C 38.7 °F /  3.7 °C 30in /  1015.6hPa SE 2mph /  3.2km/h 5mph /  8km/h 69% 0in /  0.0mm 478 W/m2
09:29 48.7 °F /  9.3 °C 38.7 °F /  3.7 °C 30in /  1015.6hPa North 4.9mph /  7.9km/h 11mph /  17.7km/h 68% 0in /  0.0mm 487 W/m2
09:34 48.9 °F /  9.4 °C 38.8 °F /  3.8 °C 30in /  1015.6hPa NNW 8.1mph /  13km/h 12mph /  19.3km/h 68% 0in /  0.0mm 496 W/m2
09:39 49.3 °F /  9.6 °C 39.2 °F /  4 °C 30in /  1015.6hPa SSE 2.9mph /  4.7km/h 8mph /  12.9km/h 68% 0in /  0.0mm 513 W/m2
09:44 49.5 °F /  9.7 °C 39.4 °F /  4.1 °C 30in /  1015.6hPa NE 2.9mph /  4.7km/h 6mph /  9.7km/h 68% 0in /  0.0mm 527 W/m2
09:49 49.8 °F /  9.9 °C 38.8 °F /  3.8 °C 30in /  1015.6hPa ENE 0.9mph /  1.4km/h 10mph /  16.1km/h 66% 0in /  0.0mm 531 W/m2
09:54 50.2 °F /  10.1 °C 38.8 °F /  3.8 °C 30in /  1015.6hPa NE 2.9mph /  4.7km/h 5mph /  8km/h 65% 0in /  0.0mm 550 W/m2
09:59 50.4 °F /  10.2 °C 39 °F /  3.9 °C 30in /  1015.6hPa NNE 4.9mph /  7.9km/h 6mph /  9.7km/h 65% 0in /  0.0mm 552 W/m2
10:04 50.4 °F /  10.2 °C 39 °F /  3.9 °C 30in /  1015.6hPa ENE 0.9mph /  1.4km/h 5mph /  8km/h 65% 0in /  0.0mm 575 W/m2
10:09 50.5 °F /  10.3 °C 39.2 °F /  4 °C 30in /  1015.6hPa NW 4mph /  6.4km/h 7mph /  11.3km/h 65% 0in /  0.0mm 517 W/m2
10:14 50.7 °F /  10.4 °C 39 °F /  3.9 °C 30in /  1015.6hPa NNW 2mph /  3.2km/h 10mph /  16.1km/h 64% 0in /  0.0mm 102 W/m2
10:19 51.1 °F /  10.6 °C 38.8 °F /  3.8 °C 30in /  1015.6hPa ENE 2mph /  3.2km/h 10mph /  16.1km/h 63% 0in /  0.0mm 165 W/m2
10:24 51.4 °F /  10.8 °C 38.8 °F /  3.8 °C 30in /  1015.6hPa NW 4.9mph /  7.9km/h 7mph /  11.3km/h 62% 0in /  0.0mm 624 W/m2
10:29 51.6 °F /  10.9 °C 38.7 °F /  3.7 °C 30in /  1015.6hPa NE 2.9mph /  4.7km/h 4mph /  6.4km/h 61% 0in /  0.0mm 635 W/m2
10:34 52 °F /  11.1 °C 38.5 °F /  3.6 °C 30in /  1015.6hPa East 4mph /  6.4km/h 12mph /  19.3km/h 60% 0in /  0.0mm 636 W/m2
10:39 52.2 °F /  11.2 °C 39.2 °F /  4 °C 30in /  1015.6hPa East 0.9mph /  1.4km/h 5mph /  8km/h 61% 0in /  0.0mm 656 W/m2
10:44 52.5 °F /  11.4 °C 39 °F /  3.9 °C 30in /  1015.6hPa ENE 4mph /  6.4km/h 8mph /  12.9km/h 60% 0in /  0.0mm 666 W/m2
10:49 52.5 °F /  11.4 °C 39 °F /  3.9 °C 30in /  1015.6hPa NNW 2.9mph /  4.7km/h 11mph /  17.7km/h 60% 0in /  0.0mm 673 W/m2
10:54 52.5 °F /  11.4 °C 39 °F /  3.9 °C 30in /  1015.6hPa NE 0.9mph /  1.4km/h 5mph /  8km/h 60% 0in /  0.0mm 675 W/m2
10:59 52.7 °F /  11.5 °C 38.8 °F /  3.8 °C 30in /  1015.6hPa SE 8.1mph /  13km/h 12mph /  19.3km/h 59% 0in /  0.0mm 686 W/m2
11:04 52.9 °F /  11.6 °C 39.7 °F /  4.3 °C 30in /  1015.6hPa East 2.9mph /  4.7km/h 6mph /  9.7km/h 61% 0in /  0.0mm 698 W/m2
11:09 53.1 °F /  11.7 °C 39.2 °F /  4 °C 30in /  1015.6hPa WSW 8.1mph /  13km/h 9mph /  14.5km/h 59% 0in /  0.0mm 701 W/m2
11:14 53.2 °F /  11.8 °C 39.7 °F /  4.3 °C 30in /  1015.6hPa SW 2.9mph /  4.7km/h 6mph /  9.7km/h 60% 0in /  0.0mm 710 W/m2
11:19 53.4 °F /  11.9 °C 39.4 °F /  4.1 °C 30in /  1015.6hPa NW 4mph /  6.4km/h 5mph /  8km/h 59% 0in /  0.0mm 717 W/m2
11:24 53.6 °F /  12 °C 39.2 °F /  4 °C 30in /  1015.6hPa NW 2.9mph /  4.7km/h 7mph /  11.3km/h 58% 0in /  0.0mm 715 W/m2
11:29 53.6 °F /  12 °C 39.2 °F /  4 °C 30in /  1015.6hPa NE 2mph /  3.2km/h 8mph /  12.9km/h 58% 0in /  0.0mm 763 W/m2
11:35 54.1 °F /  12.3 °C 40.6 °F /  4.8 °C 30in /  1015.6hPa SSE 2.9mph /  4.7km/h 8mph /  12.9km/h 60% 0in /  0.0mm 816 W/m2
11:40 54.3 °F /  12.4 °C 39.4 °F /  4.1 °C 30in /  1015.6hPa SE 2mph /  3.2km/h 9mph /  14.5km/h 57% 0in /  0.0mm 826 W/m2
11:45 54.5 °F /  12.5 °C 39.6 °F /  4.2 °C 30in /  1015.6hPa NW 2.9mph /  4.7km/h 8mph /  12.9km/h 57% 0in /  0.0mm 206 W/m2
11:50 54 °F /  12.2 °C 39.6 °F /  4.2 °C 30in /  1015.6hPa NW 4.9mph /  7.9km/h 7mph /  11.3km/h 58% 0in /  0.0mm 487 W/m2
11:55 54 °F /  12.2 °C 39.6 °F /  4.2 °C 30in /  1015.6hPa West 6.9mph /  11.1km/h 12mph /  19.3km/h 58% 0in /  0.0mm 851 W/m2
12:00 54.7 °F /  12.6 °C 40.3 °F /  4.6 °C 30in /  1015.6hPa NNE 0.9mph /  1.4km/h 10mph /  16.1km/h 58% 0in /  0.0mm 844 W/m2
12:05 55 °F /  12.8 °C 41 °F /  5 °C 30in /  1015.6hPa NW 2.9mph /  4.7km/h 11mph /  17.7km/h 59% 0in /  0.0mm 816 W/m2
12:10 55.8 °F /  13.2 °C 41.2 °F /  5.1 °C 30in /  1015.6hPa West 2mph /  3.2km/h 5mph /  8km/h 58% 0in /  0.0mm 828 W/m2
12:15 55.9 °F /  13.3 °C 41 °F /  5 °C 30in /  1015.2hPa East 4mph /  6.4km/h 10mph /  16.1km/h 57% 0in /  0.0mm 824 W/m2
12:20 56.1 °F /  13.4 °C 41.2 °F /  5.1 °C 30in /  1015.2hPa West 4mph /  6.4km/h 8mph /  12.9km/h 57% 0in /  0.0mm 886 W/m2
12:25 56.1 °F /  13.4 °C 40.6 °F /  4.8 °C 30in /  1015.2hPa NW 4mph /  6.4km/h 9mph /  14.5km/h 56% 0in /  0.0mm 819 W/m2
12:30 55.9 °F /  13.3 °C 41 °F /  5 °C 30in /  1015.2hPa ENE 10.1mph /  16.3km/h 10mph /  16.1km/h 57% 0in /  0.0mm 861 W/m2
12:35 55.9 °F /  13.3 °C 41.4 °F /  5.2 °C 30in /  1015.2hPa NE 0.9mph /  1.4km/h 5mph /  8km/h 58% 0in /  0.0mm 821 W/m2
12:40 56.5 °F /  13.6 °C 41 °F /  5 °C 30in /  1015.2hPa ENE 4mph /  6.4km/h 8mph /  12.9km/h 56% 0in /  0.0mm 835 W/m2
12:45 56.8 °F /  13.8 °C 41.4 °F /  5.2 °C 30in /  1015.2hPa SE 2.9mph /  4.7km/h 11mph /  17.7km/h 56% 0in /  0.0mm 823 W/m2
12:50 56.8 °F /  13.8 °C 40.8 °F /  4.9 °C 30in /  1015.2hPa East 4mph /  6.4km/h 7mph /  11.3km/h 55% 0in /  0.0mm 840 W/m2
12:55 56.8 °F /  13.8 °C 40.5 °F /  4.7 °C 30in /  1015.2hPa East 4mph /  6.4km/h 5mph /  8km/h 54% 0in /  0.0mm 817 W/m2
13:00 57 °F /  13.9 °C 41 °F /  5 °C 30in /  1015.2hPa West 0.9mph /  1.4km/h 5mph /  8km/h 55% 0in /  0.0mm 851 W/m2
13:05 57.4 °F /  14.1 °C 41.4 °F /  5.2 °C 30in /  1015.2hPa WNW 2.9mph /  4.7km/h 11mph /  17.7km/h 55% 0in /  0.0mm 926 W/m2
13:10 57.7 °F /  14.3 °C 41.7 °F /  5.4 °C 30in /  1014.9hPa NNW 11mph /  17.7km/h 11mph /  17.7km/h 55% 0in /  0.0mm 963 W/m2
13:15 58.3 °F /  14.6 °C 41.2 °F /  5.1 °C 30in /  1014.9hPa East 6.9mph /  11.1km/h 9mph /  14.5km/h 53% 0in /  0.0mm 988 W/m2
13:20 58.8 °F /  14.9 °C 41.2 °F /  5.1 °C 30in /  1014.9hPa SE 6.9mph /  11.1km/h 10mph /  16.1km/h 52% 0in /  0.0mm 817 W/m2
13:25 58.6 °F /  14.8 °C 41 °F /  5 °C 30in /  1014.9hPa NNW 2.9mph /  4.7km/h 4mph /  6.4km/h 52% 0in /  0.0mm 693 W/m2
13:30 58.6 °F /  14.8 °C 41 °F /  5 °C 30in /  1014.9hPa South 2mph /  3.2km/h 6mph /  9.7km/h 52% 0in /  0.0mm 496 W/m2
13:35 58.3 °F /  14.6 °C 40.3 °F /  4.6 °C 30in /  1014.9hPa NW 2.9mph /  4.7km/h 6mph /  9.7km/h 51% 0in /  0.0mm 840 W/m2
13:40 57.7 °F /  14.3 °C 40.3 °F /  4.6 °C 30in /  1014.9hPa East 2.9mph /  4.7km/h 9mph /  14.5km/h 52% 0in /  0.0mm 415 W/m2
13:45 57.7 °F /  14.3 °C 40.6 °F /  4.8 °C 30in /  1014.9hPa NNE 4mph /  6.4km/h 4mph /  6.4km/h 53% 0in /  0.0mm 415 W/m2
13:50 57.9 °F /  14.4 °C 40.5 °F /  4.7 °C 30in /  1014.9hPa ENE 2.9mph /  4.7km/h 10mph /  16.1km/h 52% 0in /  0.0mm 510 W/m2
13:55 57.7 °F /  14.3 °C 39.7 °F /  4.3 °C 30in /  1014.9hPa East 4mph /  6.4km/h 6mph /  9.7km/h 51% 0in /  0.0mm 336 W/m2
14:00 57.6 °F /  14.2 °C 40.1 °F /  4.5 °C 30in /  1014.6hPa ESE 0.9mph /  1.4km/h 3mph /  4.8km/h 52% 0in /  0.0mm 441 W/m2
14:05 57.9 °F /  14.4 °C 39.9 °F /  4.4 °C 30in /  1014.6hPa ESE 2mph /  3.2km/h 7mph /  11.3km/h 51% 0in /  0.0mm 378 W/m2
14:10 57.7 °F /  14.3 °C 39.7 °F /  4.3 °C 30in /  1014.9hPa NE 4.9mph /  7.9km/h 8mph /  12.9km/h 51% 0in /  0.0mm 450 W/m2
14:15 57.6 °F /  14.2 °C 40.1 °F /  4.5 °C 30in /  1014.6hPa SE 4mph /  6.4km/h 9mph /  14.5km/h 52% 0in /  0.0mm 513 W/m2
14:20 57.7 °F /  14.3 °C 40.3 °F /  4.6 °C 30in /  1014.6hPa East 6mph /  9.7km/h 7mph /  11.3km/h 52% 0in /  0.0mm 1051 W/m2
14:25 58.1 °F /  14.5 °C 40.1 °F /  4.5 °C 30in /  1014.6hPa ESE 6mph /  9.7km/h 7mph /  11.3km/h 51% 0in /  0.0mm 378 W/m2
14:30 58.1 °F /  14.5 °C 39.6 °F /  4.2 °C 30in /  1014.6hPa NW 2.9mph /  4.7km/h 7mph /  11.3km/h 50% 0in /  0.0mm 388 W/m2
14:35 57.9 °F /  14.4 °C 38.3 °F /  3.5 °C 30in /  1014.6hPa ESE 2.9mph /  4.7km/h 4mph /  6.4km/h 48% 0in /  0.0mm 392 W/m2
14:40 58.3 °F /  14.6 °C 39.7 °F /  4.3 °C 30in /  1014.6hPa East 2mph /  3.2km/h 8mph /  12.9km/h 50% 0in /  0.0mm 346 W/m2
14:45 57.9 °F /  14.4 °C 39.4 °F /  4.1 °C 30in /  1014.6hPa North 2mph /  3.2km/h 7mph /  11.3km/h 50% 0in /  0.0mm 348 W/m2
14:50 57.9 °F /  14.4 °C 39.4 °F /  4.1 °C 30in /  1014.6hPa NE 4.9mph /  7.9km/h 7mph /  11.3km/h 50% 0in /  0.0mm 373 W/m2
14:55 57.7 °F /  14.3 °C 39.2 °F /  4 °C 30in /  1014.6hPa NE 0.9mph /  1.4km/h 10mph /  16.1km/h 50% 0in /  0.0mm 420 W/m2
15:00 57.7 °F /  14.3 °C 39.2 °F /  4 °C 30in /  1014.6hPa WSW 2.9mph /  4.7km/h 8mph /  12.9km/h 50% 0in /  0.0mm 418 W/m2
15:05 58.3 °F /  14.6 °C 39.2 °F /  4 °C 30in /  1014.6hPa NE 6mph /  9.7km/h 7mph /  11.3km/h 49% 0in /  0.0mm 260 W/m2
15:10 58.1 °F /  14.5 °C 39.6 °F /  4.2 °C 30in /  1014.6hPa SE 4mph /  6.4km/h 13mph /  20.9km/h 50% 0in /  0.0mm 220 W/m2
15:15 57.7 °F /  14.3 °C 39.7 °F /  4.3 °C 30in /  1014.6hPa East 6.9mph /  11.1km/h 10mph /  16.1km/h 51% 0in /  0.0mm 246 W/m2
15:20 57.4 °F /  14.1 °C 39.9 °F /  4.4 °C 30in /  1014.6hPa ENE 4mph /  6.4km/h 11mph /  17.7km/h 52% 0in /  0.0mm 299 W/m2
15:25 57.2 °F /  14 °C 39.7 °F /  4.3 °C 30in /  1014.2hPa North 2mph /  3.2km/h 5mph /  8km/h 52% 0in /  0.0mm 338 W/m2
15:30 57.6 °F /  14.2 °C 40.1 °F /  4.5 °C 30in /  1014.2hPa NW 4mph /  6.4km/h 11mph /  17.7km/h 52% 0in /  0.0mm 399 W/m2
15:35 58.1 °F /  14.5 °C 40.6 °F /  4.8 °C 30in /  1014.2hPa ENE 8.1mph /  13km/h 8mph /  12.9km/h 52% 0in /  0.0mm 874 W/m2
15:40 58.6 °F /  14.8 °C 39.6 °F /  4.2 °C 30in /  1014.2hPa ENE 11mph /  17.7km/h 11mph /  17.7km/h 49% 0in /  0.0mm 865 W/m2
15:45 59.4 °F /  15.2 °C 40.3 °F /  4.6 °C 30in /  1014.2hPa SSW 2mph /  3.2km/h 14mph /  22.5km/h 49% 0in /  0.0mm 932 W/m2
15:50 59.5 °F /  15.3 °C 40.3 °F /  4.6 °C 30in /  1014.2hPa NNW 2.9mph /  4.7km/h 9mph /  14.5km/h 49% 0in /  0.0mm 759 W/m2
15:55 59.7 °F /  15.4 °C 39.9 °F /  4.4 °C 30in /  1014.2hPa East 4mph /  6.4km/h 14mph /  22.5km/h 48% 0in /  0.0mm 438 W/m2
16:00 59.2 °F /  15.1 °C 40.1 °F /  4.5 °C 30in /  1014.2hPa East 2.9mph /  4.7km/h 7mph /  11.3km/h 49% 0in /  0.0mm 425 W/m2
16:05 59 °F /  15 °C 39.9 °F /  4.4 °C 30in /  1014.2hPa NE 0.9mph /  1.4km/h 6mph /  9.7km/h 49% 0in /  0.0mm 350 W/m2
16:10 58.8 °F /  14.9 °C 39.7 °F /  4.3 °C 30in /  1014.2hPa ENE 4.9mph /  7.9km/h 7mph /  11.3km/h 49% 0in /  0.0mm 429 W/m2
16:15 59 °F /  15 °C 41.4 °F /  5.2 °C 29.9in /  1013.9hPa East 8.9mph /  14.3km/h 12mph /  19.3km/h 52% 0.02in /  0.5mm 322 W/m2
16:20 58.8 °F /  14.9 °C 40.3 °F /  4.6 °C 29.9in /  1013.9hPa ENE 4mph /  6.4km/h 5mph /  8km/h 50% 0.02in /  0.5mm 295 W/m2
16:25 58.6 °F /  14.8 °C 40.6 °F /  4.8 °C 29.9in /  1013.9hPa East 2.9mph /  4.7km/h 12mph /  19.3km/h 51% 0.02in /  0.5mm 424 W/m2
16:30 58.6 °F /  14.8 °C 39.6 °F /  4.2 °C 29.9in /  1013.9hPa South 2mph /  3.2km/h 10mph /  16.1km/h 49% 0.02in /  0.5mm 359 W/m2
16:35 58.6 °F /  14.8 °C 40.1 °F /  4.5 °C 29.9in /  1013.9hPa South 2mph /  3.2km/h 11mph /  17.7km/h 50% 0.02in /  0.5mm 301 W/m2
16:40 58.6 °F /  14.8 °C 39.6 °F /  4.2 °C 29.9in /  1013.9hPa ENE 0.9mph /  1.4km/h 14mph /  22.5km/h 49% 0.02in /  0.5mm 257 W/m2
16:45 58.6 °F /  14.8 °C 40.1 °F /  4.5 °C 29.9in /  1013.9hPa NNE 0.9mph /  1.4km/h 6mph /  9.7km/h 50% 0.02in /  0.5mm 322 W/m2
16:50 59.2 °F /  15.1 °C 39.6 °F /  4.2 °C 29.9in /  1013.9hPa NE 4.9mph /  7.9km/h 15mph /  24.1km/h 48% 0.02in /  0.5mm 329 W/m2
16:55 59.2 °F /  15.1 °C 39.6 °F /  4.2 °C 29.9in /  1013.5hPa ENE 4mph /  6.4km/h 11mph /  17.7km/h 48% 0.02in /  0.5mm 267 W/m2
17:00 58.8 °F /  14.9 °C 39.2 °F /  4 °C 29.9in /  1013.5hPa East 6mph /  9.7km/h 9mph /  14.5km/h 48% 0.02in /  0.5mm 267 W/m2
17:05 58.6 °F /  14.8 °C 39 °F /  3.9 °C 29.9in /  1013.5hPa ENE 0.9mph /  1.4km/h 12mph /  19.3km/h 48% 0.02in /  0.5mm 308 W/m2
17:10 58.6 °F /  14.8 °C 39 °F /  3.9 °C 29.9in /  1013.5hPa North 0.9mph /  1.4km/h 4mph /  6.4km/h 48% 0.02in /  0.5mm 617 W/m2
17:15 59.2 °F /  15.1 °C 39 °F /  3.9 °C 29.9in /  1013.5hPa NNW 6mph /  9.7km/h 12mph /  19.3km/h 47% 0in /  0.0mm 693 W/m2
17:20 59.9 °F /  15.5 °C 39 °F /  3.9 °C 29.9in /  1013.5hPa SSE 4mph /  6.4km/h 13mph /  20.9km/h 46% 0in /  0.0mm 668 W/m2
17:25 59.7 °F /  15.4 °C 38.8 °F /  3.8 °C 29.9in /  1013.9hPa ENE 2.9mph /  4.7km/h 12mph /  19.3km/h 46% 0in /  0.0mm 206 W/m2
17:30 58.8 °F /  14.9 °C 38.1 °F /  3.4 °C 29.9in /  1013.9hPa NE 2mph /  3.2km/h 13mph /  20.9km/h 46% 0in /  0.0mm 211 W/m2
17:35 58.5 °F /  14.7 °C 38.3 °F /  3.5 °C 29.9in /  1013.9hPa NE 4.9mph /  7.9km/h 9mph /  14.5km/h 47% 0in /  0.0mm 582 W/m2
17:40 58.6 °F /  14.8 °C 39.6 °F /  4.2 °C 29.9in /  1013.9hPa ENE 2mph /  3.2km/h 12mph /  19.3km/h 49% 0in /  0.0mm 302 W/m2
17:45 58.8 °F /  14.9 °C 38.7 °F /  3.7 °C 29.9in /  1013.9hPa NE 2.9mph /  4.7km/h 7mph /  11.3km/h 47% 0in /  0.0mm 258 W/m2
17:50 58.8 °F /  14.9 °C 38.7 °F /  3.7 °C 29.9in /  1013.9hPa East 6.9mph /  11.1km/h 8mph /  12.9km/h 47% 0in /  0.0mm 253 W/m2
17:55 58.6 °F /  14.8 °C 38.5 °F /  3.6 °C 29.9in /  1013.9hPa NNE 4.9mph /  7.9km/h 14mph /  22.5km/h 47% 0in /  0.0mm 257 W/m2
18:00 58.5 °F /  14.7 °C 38.3 °F /  3.5 °C 29.9in /  1013.9hPa NNE 2.9mph /  4.7km/h 7mph /  11.3km/h 47% 0in /  0.0mm 267 W/m2
18:05 58.5 °F /  14.7 °C 38.8 °F /  3.8 °C 29.9in /  1013.9hPa North 2.9mph /  4.7km/h 7mph /  11.3km/h 48% 0in /  0.0mm 380 W/m2
18:10 58.8 °F /  14.9 °C 38.7 °F /  3.7 °C 29.9in /  1013.9hPa ESE 2.9mph /  4.7km/h 7mph /  11.3km/h 47% 0in /  0.0mm 427 W/m2
18:15 58.6 °F /  14.8 °C 37.9 °F /  3.3 °C 29.9in /  1013.9hPa SSE 2mph /  3.2km/h 6mph /  9.7km/h 46% 0in /  0.0mm 139 W/m2
18:20 58.5 °F /  14.7 °C 38.3 °F /  3.5 °C 29.9in /  1013.9hPa North 2mph /  3.2km/h 12mph /  19.3km/h 47% 0in /  0.0mm 123 W/m2
18:25 58.3 °F /  14.6 °C 37.6 °F /  3.1 °C 29.9in /  1013.9hPa ESE 6mph /  9.7km/h 9mph /  14.5km/h 46% 0in /  0.0mm 128 W/m2
18:30 57.9 °F /  14.4 °C 37.8 °F /  3.2 °C 30in /  1014.2hPa NE 2.9mph /  4.7km/h 6mph /  9.7km/h 47% 0in /  0.0mm 132 W/m2
18:35 57.7 °F /  14.3 °C 37.6 °F /  3.1 °C 29.9in /  1013.9hPa ENE 6.9mph /  11.1km/h 13mph /  20.9km/h 47% 0in /  0.0mm 141 W/m2
18:40 57.7 °F /  14.3 °C 38.1 °F /  3.4 °C 29.9in /  1013.9hPa East 0.9mph /  1.4km/h 4mph /  6.4km/h 48% 0in /  0.0mm 137 W/m2
18:45 57.7 °F /  14.3 °C 37.6 °F /  3.1 °C 29.9in /  1013.9hPa ESE 4mph /  6.4km/h 13mph /  20.9km/h 47% 0in /  0.0mm 135 W/m2
18:50 57.6 °F /  14.2 °C 36.9 °F /  2.7 °C 30in /  1014.2hPa SE 2.9mph /  4.7km/h 16mph /  25.7km/h 46% 0in /  0.0mm 111 W/m2
18:55 57.4 °F /  14.1 °C 37.4 °F /  3 °C 29.9in /  1013.9hPa East 6.9mph /  11.1km/h 8mph /  12.9km/h 47% 0in /  0.0mm 97 W/m2
19:00 57.4 °F /  14.1 °C 37.4 °F /  3 °C 29.9in /  1013.9hPa ESE 6mph /  9.7km/h 16mph /  25.7km/h 47% 0in /  0.0mm 91 W/m2
19:05 57.4 °F /  14.1 °C 37.4 °F /  3 °C 29.9in /  1013.9hPa ESE 2mph /  3.2km/h 6mph /  9.7km/h 47% 0in /  0.0mm 97 W/m2
19:10 57 °F /  13.9 °C 37 °F /  2.8 °C 29.9in /  1013.9hPa East 6mph /  9.7km/h 11mph /  17.7km/h 47% 0in /  0.0mm 100 W/m2
19:15 56.8 °F /  13.8 °C 37.4 °F /  3 °C 30in /  1014.2hPa ENE 2mph /  3.2km/h 8mph /  12.9km/h 48% 0in /  0.0mm 116 W/m2
19:20 56.8 °F /  13.8 °C 37.4 °F /  3 °C 29.9in /  1013.9hPa East 2.9mph /  4.7km/h 9mph /  14.5km/h 48% 0in /  0.0mm 121 W/m2
19:25 56.8 °F /  13.8 °C 37.4 °F /  3 °C 30in /  1014.2hPa East 4.9mph /  7.9km/h 6mph /  9.7km/h 48% 0in /  0.0mm 107 W/m2
19:30 56.8 °F /  13.8 °C 36.9 °F /  2.7 °C 29.9in /  1013.9hPa West 6.9mph /  11.1km/h 8mph /  12.9km/h 47% 0in /  0.0mm 79 W/m2
19:35 56.8 °F /  13.8 °C 37.4 °F /  3 °C 30in /  1014.2hPa ESE 4mph /  6.4km/h 14mph /  22.5km/h 48% 0in /  0.0mm 46 W/m2
19:40 56.7 °F /  13.7 °C 37.2 °F /  2.9 °C 29.9in /  1013.9hPa NE 11mph /  17.7km/h 11mph /  17.7km/h 48% 0in /  0.0mm 35 W/m2
19:45 56.7 °F /  13.7 °C 37.2 °F /  2.9 °C 29.9in /  1013.9hPa East 6.9mph /  11.1km/h 14mph /  22.5km/h 48% 0in /  0.0mm 35 W/m2
19:50 56.5 °F /  13.6 °C 37 °F /  2.8 °C 29.9in /  1013.9hPa ENE 4.9mph /  7.9km/h 5mph /  8km/h 48% 0in /  0.0mm 33 W/m2
19:55 56.1 °F /  13.4 °C 37.2 °F /  2.9 °C 29.9in /  1013.9hPa NE 4.9mph /  7.9km/h 6mph /  9.7km/h 49% 0in /  0.0mm 33 W/m2
20:00 55.9 °F /  13.3 °C 37 °F /  2.8 °C 30in /  1014.2hPa ENE 2mph /  3.2km/h 2mph /  3.2km/h 49% 0in /  0.0mm 35 W/m2
20:05 55.9 °F /  13.3 °C 37 °F /  2.8 °C 29.9in /  1013.9hPa NNW 4mph /  6.4km/h 5mph /  8km/h 49% 0in /  0.0mm 40 W/m2
20:10 55.8 °F /  13.2 °C 36.9 °F /  2.7 °C 29.9in /  1013.9hPa NE 2mph /  3.2km/h 6mph /  9.7km/h 49% 0in /  0.0mm 46 W/m2
20:15 55.8 °F /  13.2 °C 37.4 °F /  3 °C 29.9in /  1013.9hPa East 4.9mph /  7.9km/h 6mph /  9.7km/h 50% 0in /  0.0mm 70 W/m2
20:20 55.8 °F /  13.2 °C 37.9 °F /  3.3 °C 29.9in /  1013.9hPa Calm   1mph /  1.6km/h 51% 0in /  0.0mm 44 W/m2
20:25 55.6 °F /  13.1 °C 37.2 °F /  2.9 °C 29.9in /  1013.9hPa Calm   5mph /  8km/h 50% 0in /  0.0mm 33 W/m2
20:30 55.6 °F /  13.1 °C 37.8 °F /  3.2 °C 29.9in /  1013.9hPa Calm   2mph /  3.2km/h 51% 0in /  0.0mm 33 W/m2
20:35 55.2 °F /  12.9 °C 37.4 °F /  3 °C 30in /  1014.2hPa North 2.9mph /  4.7km/h 7mph /  11.3km/h 51% 0in /  0.0mm 32 W/m2
20:40 55 °F /  12.8 °C 37.8 °F /  3.2 °C 30in /  1014.2hPa NW 2mph /  3.2km/h 3mph /  4.8km/h 52% 0in /  0.0mm 25 W/m2
20:45 54.9 °F /  12.7 °C 37.6 °F /  3.1 °C 30in /  1014.2hPa NW 0.9mph /  1.4km/h 7mph /  11.3km/h 52% 0in /  0.0mm 21 W/m2
20:50 54.9 °F /  12.7 °C 37.6 °F /  3.1 °C 30in /  1014.2hPa Calm   1mph /  1.6km/h 52% 0in /  0.0mm 16 W/m2
20:55 54.7 °F /  12.6 °C 37.4 °F /  3 °C 29.9in /  1013.9hPa Calm   2mph /  3.2km/h 52% 0in /  0.0mm 12 W/m2
21:00 54.3 °F /  12.4 °C 37 °F /  2.8 °C 30in /  1014.2hPa NNW 0.9mph /  1.4km/h 2mph /  3.2km/h 52% 0in /  0.0mm 11 W/m2
21:05 54.1 °F /  12.3 °C 37.4 °F /  3 °C 29.9in /  1013.9hPa Calm   6mph /  9.7km/h 53% 0in /  0.0mm 7 W/m2
21:10 54 °F /  12.2 °C 37.2 °F /  2.9 °C 30in /  1014.2hPa WSW 0.9mph /  1.4km/h 2mph /  3.2km/h 53% 0in /  0.0mm 5 W/m2
21:15 53.8 °F /  12.1 °C 37 °F /  2.8 °C 30in /  1014.2hPa NNW 2mph /  3.2km/h 2mph /  3.2km/h 53% 0in /  0.0mm 0 W/m2
21:20 53.4 °F /  11.9 °C 37.2 °F /  2.9 °C 30in /  1014.2hPa NNW 2mph /  3.2km/h 4mph /  6.4km/h 54% 0in /  0.0mm 0 W/m2
21:26 53.4 °F /  11.9 °C 37.2 °F /  2.9 °C 30in /  1014.2hPa ENE 4mph /  6.4km/h 4mph /  6.4km/h 54% 0in /  0.0mm 0 W/m2
21:31 53.2 °F /  11.8 °C 37 °F /  2.8 °C 30in /  1014.2hPa Calm   2mph /  3.2km/h 54% 0in /  0.0mm 0 W/m2
21:36 53.1 °F /  11.7 °C 37.4 °F /  3 °C 30in /  1014.2hPa Calm   1mph /  1.6km/h 55% 0in /  0.0mm 0 W/m2
21:41 52.9 °F /  11.6 °C 37.6 °F /  3.1 °C 30in /  1014.6hPa Calm   1mph /  1.6km/h 56% 0in /  0.0mm 0 W/m2
21:46 52.5 °F /  11.4 °C 37.2 °F /  2.9 °C 30in /  1014.6hPa WNW 0.9mph /  1.4km/h 4mph /  6.4km/h 56% 0in /  0.0mm 0 W/m2
21:51 52.3 °F /  11.3 °C 37 °F /  2.8 °C 30in /  1014.6hPa NNE 0.9mph /  1.4km/h 1mph /  1.6km/h 56% 0in /  0.0mm 0 W/m2
21:56 52.3 °F /  11.3 °C 37 °F /  2.8 °C 30in /  1014.6hPa NW 0.9mph /  1.4km/h 4mph /  6.4km/h 56% 0in /  0.0mm 0 W/m2
22:01 52.3 °F /  11.3 °C 37 °F /  2.8 °C 30in /  1014.6hPa NE 0.9mph /  1.4km/h 3mph /  4.8km/h 56% 0in /  0.0mm 0 W/m2
22:06 52.3 °F /  11.3 °C 37 °F /  2.8 °C 30in /  1014.6hPa East 4mph /  6.4km/h 8mph /  12.9km/h 56% 0in /  0.0mm 0 W/m2
22:11 52.3 °F /  11.3 °C 37 °F /  2.8 °C 30in /  1014.6hPa NNW 2mph /  3.2km/h 4mph /  6.4km/h 56% 0in /  0.0mm 0 W/m2
22:16 52.2 °F /  11.2 °C 36.9 °F /  2.7 °C 30in /  1014.6hPa North 0.9mph /  1.4km/h 5mph /  8km/h 56% 0in /  0.0mm 0 W/m2
22:21 52.2 °F /  11.2 °C 36.9 °F /  2.7 °C 30in /  1014.6hPa NW 2.9mph /  4.7km/h 3mph /  4.8km/h 56% 0in /  0.0mm 0 W/m2
22:26 52.2 °F /  11.2 °C 37.4 °F /  3 °C 30in /  1014.6hPa ENE 0.9mph /  1.4km/h 4mph /  6.4km/h 57% 0in /  0.0mm 0 W/m2
22:31 52.2 °F /  11.2 °C 37.4 °F /  3 °C 30in /  1014.9hPa NE 0.9mph /  1.4km/h 4mph /  6.4km/h 57% 0in /  0.0mm 0 W/m2
22:36 52 °F /  11.1 °C 37.2 °F /  2.9 °C 30in /  1014.9hPa NE 0.9mph /  1.4km/h 1mph /  1.6km/h 57% 0in /  0.0mm 0 W/m2
22:41 52 °F /  11.1 °C 37.2 °F /  2.9 °C 30in /  1014.9hPa ENE 0.9mph /  1.4km/h 4mph /  6.4km/h 57% 0in /  0.0mm 0 W/m2
22:46 52 °F /  11.1 °C 37.2 °F /  2.9 °C 30in /  1014.9hPa Calm   2mph /  3.2km/h 57% 0in /  0.0mm 0 W/m2
22:52 52 °F /  11.1 °C 37.2 °F /  2.9 °C 30in /  1014.9hPa NNW 2mph /  3.2km/h 3mph /  4.8km/h 57% 0in /  0.0mm 0 W/m2
22:57 51.8 °F /  11 °C 37.6 °F /  3.1 °C 30in /  1014.9hPa Calm   2mph /  3.2km/h 58% 0in /  0.0mm 0 W/m2
23:02 51.8 °F /  11 °C 37.6 °F /  3.1 °C 30in /  1014.9hPa WNW 0.9mph /  1.4km/h 2mph /  3.2km/h 58% 0in /  0.0mm 0 W/m2
23:07 51.6 °F /  10.9 °C 37.4 °F /  3 °C 30in /  1014.9hPa Calm   2mph /  3.2km/h 58% 0in /  0.0mm 0 W/m2
23:12 51.4 °F /  10.8 °C 37.2 °F /  2.9 °C 30in /  1014.9hPa NNE 0.9mph /  1.4km/h 2mph /  3.2km/h 58% 0in /  0.0mm 0 W/m2
23:17 51.4 °F /  10.8 °C 37.6 °F /  3.1 °C 30in /  1014.9hPa WNW 2mph /  3.2km/h 3mph /  4.8km/h 59% 0in /  0.0mm 0 W/m2
23:22 51.4 °F /  10.8 °C 37.6 °F /  3.1 °C 30in /  1014.9hPa Calm   2mph /  3.2km/h 59% 0in /  0.0mm 0 W/m2
23:27 51.3 °F /  10.7 °C 37.8 °F /  3.2 °C 30in /  1014.9hPa Calm   3mph /  4.8km/h 60% 0in /  0.0mm 0 W/m2
23:32 51.3 °F /  10.7 °C 37.8 °F /  3.2 °C 30in /  1014.9hPa WNW 0.9mph /  1.4km/h 2mph /  3.2km/h 60% 0in /  0.0mm 0 W/m2
23:37 51.1 °F /  10.6 °C 38.1 °F /  3.4 °C 30in /  1014.9hPa Calm   3mph /  4.8km/h 61% 0in /  0.0mm 0 W/m2
23:42 50.9 °F /  10.5 °C 37.6 °F /  3.1 °C 30in /  1014.9hPa West 0.9mph /  1.4km/h 2mph /  3.2km/h 60% 0in /  0.0mm 0 W/m2
23:47 50.7 °F /  10.4 °C 37.8 °F /  3.2 °C 30in /  1014.9hPa Calm   3mph /  4.8km/h 61% 0in /  0.0mm 0 W/m2
23:52 50.5 °F /  10.3 °C 37.9 °F /  3.3 °C 30in /  1014.9hPa West 2mph /  3.2km/h 2mph /  3.2km/h 62% 0in /  0.0mm 0 W/m2
23:58 50.2 °F /  10.1 °C 37.2 °F /  2.9 °C 30in /  1014.9hPa West 0.9mph /  1.4km/h 3mph /  4.8km/h 61% 0in /  0.0mm 0 W/m2
Juneau County Weather
Compliments of Weather Underground - 2 mb